sensor_id;sensor_type;location;lat;lon;timestamp;P1;durP1;ratioP1;P2;durP2;ratioP2
20104;SDS011;10212;42.714;23.310;2023-03-01T00:07:00;6.75;;;4.50;;
20104;SDS011;10212;42.714;23.310;2023-03-01T00:17:06;5.28;;;4.07;;
20104;SDS011;10212;42.714;23.310;2023-03-01T00:27:06;3.65;;;2.60;;
20104;SDS011;10212;42.714;23.310;2023-03-01T00:37:07;2.97;;;2.50;;
20104;SDS011;10212;42.714;23.310;2023-03-01T00:47:08;3.58;;;2.85;;
20104;SDS011;10212;42.714;23.310;2023-03-01T00:57:08;3.67;;;2.47;;
20104;SDS011;10212;42.714;23.310;2023-03-01T01:07:09;3.20;;;2.60;;
20104;SDS011;10212;42.714;23.310;2023-03-01T01:17:09;3.83;;;2.92;;
20104;SDS011;10212;42.714;23.310;2023-03-01T01:27:10;4.20;;;3.03;;
20104;SDS011;10212;42.714;23.310;2023-03-01T01:37:10;3.63;;;2.97;;
20104;SDS011;10212;42.714;23.310;2023-03-01T01:47:18;2.90;;;2.42;;
20104;SDS011;10212;42.714;23.310;2023-03-01T01:57:23;2.50;;;2.30;;
20104;SDS011;10212;42.714;23.310;2023-03-01T02:07:29;3.25;;;2.60;;
20104;SDS011;10212;42.714;23.310;2023-03-01T02:17:30;2.20;;;2.00;;
20104;SDS011;10212;42.714;23.310;2023-03-01T02:27:41;2.30;;;2.10;;
20104;SDS011;10212;42.714;23.310;2023-03-01T02:37:48;4.25;;;2.88;;
20104;SDS011;10212;42.714;23.310;2023-03-01T02:47:49;3.42;;;2.72;;
20104;SDS011;10212;42.714;23.310;2023-03-01T02:57:49;3.33;;;2.47;;
20104;SDS011;10212;42.714;23.310;2023-03-01T03:07:51;2.10;;;1.90;;
20104;SDS011;10212;42.714;23.310;2023-03-01T03:17:51;3.80;;;2.10;;
20104;SDS011;10212;42.714;23.310;2023-03-01T03:27:53;3.22;;;2.35;;
20104;SDS011;10212;42.714;23.310;2023-03-01T03:37:57;2.90;;;2.60;;
20104;SDS011;10212;42.714;23.310;2023-03-01T03:48:13;3.60;;;2.35;;
20104;SDS011;10212;42.714;23.310;2023-03-01T03:58:14;4.53;;;2.72;;
20104;SDS011;10212;42.714;23.310;2023-03-01T04:08:20;3.85;;;2.60;;
20104;SDS011;10212;42.714;23.310;2023-03-01T04:18:22;3.10;;;2.13;;
20104;SDS011;10212;42.714;23.310;2023-03-01T04:28:26;3.13;;;2.67;;
20104;SDS011;10212;42.714;23.310;2023-03-01T04:38:29;4.38;;;2.78;;
20104;SDS011;10212;42.714;23.310;2023-03-01T04:48:30;4.40;;;3.15;;
20104;SDS011;10212;42.714;23.310;2023-03-01T04:58:31;6.90;;;4.40;;
20104;SDS011;10212;42.714;23.310;2023-03-01T05:08:32;5.45;;;4.30;;
20104;SDS011;10212;42.714;23.310;2023-03-01T05:18:34;3.53;;;2.30;;
20104;SDS011;10212;42.714;23.310;2023-03-01T05:28:34;4.23;;;2.60;;
20104;SDS011;10212;42.714;23.310;2023-03-01T05:38:35;6.17;;;4.63;;
20104;SDS011;10212;42.714;23.310;2023-03-01T05:48:36;8.70;;;5.15;;
20104;SDS011;10212;42.714;23.310;2023-03-01T05:58:36;8.23;;;4.93;;
20104;SDS011;10212;42.714;23.310;2023-03-01T06:08:38;8.45;;;4.50;;
20104;SDS011;10212;42.714;23.310;2023-03-01T06:18:38;6.43;;;4.63;;
20104;SDS011;10212;42.714;23.310;2023-03-01T06:28:39;6.95;;;4.82;;
20104;SDS011;10212;42.714;23.310;2023-03-01T06:38:40;5.78;;;3.80;;
20104;SDS011;10212;42.714;23.310;2023-03-01T06:48:40;3.90;;;3.10;;
20104;SDS011;10212;42.714;23.310;2023-03-01T06:58:41;4.50;;;2.63;;
20104;SDS011;10212;42.714;23.310;2023-03-01T07:08:41;8.45;;;2.97;;
20104;SDS011;10212;42.714;23.310;2023-03-01T07:18:41;4.75;;;3.08;;
20104;SDS011;10212;42.714;23.310;2023-03-01T07:28:42;5.47;;;3.70;;
20104;SDS011;10212;42.714;23.310;2023-03-01T07:38:42;4.97;;;3.10;;
20104;SDS011;10212;42.714;23.310;2023-03-01T07:48:43;4.88;;;2.90;;
20104;SDS011;10212;42.714;23.310;2023-03-01T07:58:44;4.57;;;2.13;;
20104;SDS011;10212;42.714;23.310;2023-03-01T08:08:45;4.57;;;2.17;;
20104;SDS011;10212;42.714;23.310;2023-03-01T08:18:46;5.05;;;2.15;;
20104;SDS011;10212;42.714;23.310;2023-03-01T08:28:47;6.55;;;1.80;;
20104;SDS011;10212;42.714;23.310;2023-03-01T08:38:48;2.75;;;1.95;;
20104;SDS011;10212;42.714;23.310;2023-03-01T08:48:49;5.20;;;2.28;;
20104;SDS011;10212;42.714;23.310;2023-03-01T08:58:50;6.22;;;3.17;;
20104;SDS011;10212;42.714;23.310;2023-03-01T09:08:50;3.65;;;2.60;;
20104;SDS011;10212;42.714;23.310;2023-03-01T09:18:52;2.10;;;1.90;;
20104;SDS011;10212;42.714;23.310;2023-03-01T09:28:53;2.17;;;1.90;;
20104;SDS011;10212;42.714;23.310;2023-03-01T09:38:56;3.88;;;2.20;;
20104;SDS011;10212;42.714;23.310;2023-03-01T09:48:59;3.75;;;2.00;;
20104;SDS011;10212;42.714;23.310;2023-03-01T10:09:14;4.73;;;1.63;;
20104;SDS011;10212;42.714;23.310;2023-03-01T10:19:24;1.95;;;1.63;;
20104;SDS011;10212;42.714;23.310;2023-03-01T10:29:34;3.08;;;1.83;;
20104;SDS011;10212;42.714;23.310;2023-03-01T10:49:57;2.17;;;1.33;;
20104;SDS011;10212;42.714;23.310;2023-03-01T11:00:44;1.75;;;0.98;;
20104;SDS011;10212;42.714;23.310;2023-03-01T11:10:29;1.75;;;1.02;;
20104;SDS011;10212;42.714;23.310;2023-03-01T11:20:35;3.78;;;1.20;;
20104;SDS011;10212;42.714;23.310;2023-03-01T11:41:05;1.73;;;1.13;;
20104;SDS011;10212;42.714;23.310;2023-03-01T11:51:17;1.63;;;1.45;;
20104;SDS011;10212;42.714;23.310;2023-03-01T12:01:28;3.97;;;1.70;;
20104;SDS011;10212;42.714;23.310;2023-03-01T12:22:16;2.88;;;1.70;;
20104;SDS011;10212;42.714;23.310;2023-03-01T12:52:57;3.35;;;2.40;;
20104;SDS011;10212;42.714;23.310;2023-03-01T13:03:45;2.92;;;2.28;;
20104;SDS011;10212;42.714;23.310;2023-03-01T13:13:23;5.10;;;3.10;;
20104;SDS011;10212;42.714;23.310;2023-03-01T13:23:26;5.15;;;3.25;;
20104;SDS011;10212;42.714;23.310;2023-03-01T13:43:36;6.07;;;3.17;;
20104;SDS011;10212;42.714;23.310;2023-03-01T13:53:40;5.50;;;3.47;;
20104;SDS011;10212;42.714;23.310;2023-03-01T14:03:57;4.45;;;2.65;;
20104;SDS011;10212;42.714;23.310;2023-03-01T14:14:10;6.75;;;3.53;;
20104;SDS011;10212;42.714;23.310;2023-03-01T14:24:20;9.20;;;3.40;;
20104;SDS011;10212;42.714;23.310;2023-03-01T14:34:23;5.78;;;3.58;;
20104;SDS011;10212;42.714;23.310;2023-03-01T14:44:24;6.75;;;3.40;;
20104;SDS011;10212;42.714;23.310;2023-03-01T15:04:27;4.85;;;2.95;;
20104;SDS011;10212;42.714;23.310;2023-03-01T15:14:36;4.43;;;2.80;;
20104;SDS011;10212;42.714;23.310;2023-03-01T15:24:46;6.45;;;2.95;;
20104;SDS011;10212;42.714;23.310;2023-03-01T15:34:50;5.13;;;3.17;;
20104;SDS011;10212;42.714;23.310;2023-03-01T15:45:06;5.72;;;2.80;;
20104;SDS011;10212;42.714;23.310;2023-03-01T15:55:28;7.82;;;3.38;;
20104;SDS011;10212;42.714;23.310;2023-03-01T16:05:33;10.45;;;3.70;;
20104;SDS011;10212;42.714;23.310;2023-03-01T16:15:36;13.15;;;4.65;;
20104;SDS011;10212;42.714;23.310;2023-03-01T16:25:37;7.40;;;4.40;;
20104;SDS011;10212;42.714;23.310;2023-03-01T16:35:41;12.87;;;5.20;;
20104;SDS011;10212;42.714;23.310;2023-03-01T16:45:43;11.77;;;4.70;;
20104;SDS011;10212;42.714;23.310;2023-03-01T16:55:52;8.43;;;4.30;;
20104;SDS011;10212;42.714;23.310;2023-03-01T17:05:53;8.10;;;4.38;;
20104;SDS011;10212;42.714;23.310;2023-03-01T17:15:53;8.80;;;5.28;;
20104;SDS011;10212;42.714;23.310;2023-03-01T17:25:54;11.82;;;6.50;;
20104;SDS011;10212;42.714;23.310;2023-03-01T17:35:55;13.50;;;7.63;;
20104;SDS011;10212;42.714;23.310;2023-03-01T17:45:57;14.77;;;8.27;;
20104;SDS011;10212;42.714;23.310;2023-03-01T17:55:59;13.35;;;8.40;;
20104;SDS011;10212;42.714;23.310;2023-03-01T18:06:01;14.00;;;9.10;;
20104;SDS011;10212;42.714;23.310;2023-03-01T18:16:08;18.42;;;11.02;;
20104;SDS011;10212;42.714;23.310;2023-03-01T18:26:12;18.35;;;10.88;;
20104;SDS011;10212;42.714;23.310;2023-03-01T18:36:16;20.50;;;11.95;;
20104;SDS011;10212;42.714;23.310;2023-03-01T18:46:22;19.88;;;12.10;;
20104;SDS011;10212;42.714;23.310;2023-03-01T18:56:23;23.67;;;13.02;;
20104;SDS011;10212;42.714;23.310;2023-03-01T19:06:27;22.15;;;12.50;;
20104;SDS011;10212;42.714;23.310;2023-03-01T19:16:30;20.27;;;11.93;;
20104;SDS011;10212;42.714;23.310;2023-03-01T19:26:32;18.42;;;11.27;;
20104;SDS011;10212;42.714;23.310;2023-03-01T19:36:33;22.83;;;13.43;;
20104;SDS011;10212;42.714;23.310;2023-03-01T19:46:34;23.17;;;13.50;;
20104;SDS011;10212;42.714;23.310;2023-03-01T19:56:35;20.95;;;12.23;;
20104;SDS011;10212;42.714;23.310;2023-03-01T20:06:36;22.88;;;13.27;;
20104;SDS011;10212;42.714;23.310;2023-03-01T20:16:38;23.63;;;13.70;;
20104;SDS011;10212;42.714;23.310;2023-03-01T20:26:39;21.45;;;12.68;;
20104;SDS011;10212;42.714;23.310;2023-03-01T20:36:40;23.27;;;13.35;;
20104;SDS011;10212;42.714;23.310;2023-03-01T20:46:41;23.27;;;12.48;;
20104;SDS011;10212;42.714;23.310;2023-03-01T20:56:42;18.27;;;10.65;;
20104;SDS011;10212;42.714;23.310;2023-03-01T21:06:45;18.50;;;10.73;;
20104;SDS011;10212;42.714;23.310;2023-03-01T21:16:46;20.33;;;11.38;;
20104;SDS011;10212;42.714;23.310;2023-03-01T21:26:46;21.50;;;11.23;;
20104;SDS011;10212;42.714;23.310;2023-03-01T21:36:47;18.70;;;11.10;;
20104;SDS011;10212;42.714;23.310;2023-03-01T21:46:47;17.90;;;10.20;;
20104;SDS011;10212;42.714;23.310;2023-03-01T21:56:48;18.58;;;9.05;;
20104;SDS011;10212;42.714;23.310;2023-03-01T22:06:50;12.32;;;7.20;;
20104;SDS011;10212;42.714;23.310;2023-03-01T22:16:53;11.63;;;6.75;;
20104;SDS011;10212;42.714;23.310;2023-03-01T22:26:54;8.65;;;6.03;;
20104;SDS011;10212;42.714;23.310;2023-03-01T22:36:54;8.00;;;5.47;;
20104;SDS011;10212;42.714;23.310;2023-03-01T22:46:55;8.60;;;5.65;;
20104;SDS011;10212;42.714;23.310;2023-03-01T22:56:55;8.10;;;5.55;;
20104;SDS011;10212;42.714;23.310;2023-03-01T23:06:56;8.20;;;5.95;;
20104;SDS011;10212;42.714;23.310;2023-03-01T23:16:57;9.57;;;5.45;;
20104;SDS011;10212;42.714;23.310;2023-03-01T23:27:00;9.65;;;6.00;;
20104;SDS011;10212;42.714;23.310;2023-03-01T23:37:02;11.13;;;6.32;;
20104;SDS011;10212;42.714;23.310;2023-03-01T23:47:03;10.95;;;7.25;;
20104;SDS011;10212;42.714;23.310;2023-03-01T23:57:04;7.93;;;6.05;;
